sensor_id;sensor_type;location;lat;lon;timestamp;P1;durP1;ratioP1;P2;durP2;ratioP2
15096;SDS011;7649;52.084;7.478;2023-02-28T00:00:26;10.67;;;6.50;;
15096;SDS011;7649;52.084;7.478;2023-02-28T00:02:55;8.77;;;6.07;;
15096;SDS011;7649;52.084;7.478;2023-02-28T00:05:24;8.20;;;6.30;;
15096;SDS011;7649;52.084;7.478;2023-02-28T00:07:52;9.63;;;6.33;;
15096;SDS011;7649;52.084;7.478;2023-02-28T00:10:21;7.10;;;5.77;;
15096;SDS011;7649;52.084;7.478;2023-02-28T00:12:50;8.63;;;6.53;;
15096;SDS011;7649;52.084;7.478;2023-02-28T00:15:19;7.43;;;6.17;;
15096;SDS011;7649;52.084;7.478;2023-02-28T00:17:50;10.07;;;6.47;;
15096;SDS011;7649;52.084;7.478;2023-02-28T00:20:18;9.03;;;7.03;;
15096;SDS011;7649;52.084;7.478;2023-02-28T00:22:48;9.70;;;7.10;;
15096;SDS011;7649;52.084;7.478;2023-02-28T00:25:17;8.83;;;6.27;;
15096;SDS011;7649;52.084;7.478;2023-02-28T00:27:45;8.07;;;6.53;;
15096;SDS011;7649;52.084;7.478;2023-02-28T00:30:15;9.17;;;7.20;;
15096;SDS011;7649;52.084;7.478;2023-02-28T00:32:43;8.77;;;6.97;;
15096;SDS011;7649;52.084;7.478;2023-02-28T00:35:13;8.77;;;7.10;;
15096;SDS011;7649;52.084;7.478;2023-02-28T00:37:42;11.77;;;6.57;;
15096;SDS011;7649;52.084;7.478;2023-02-28T00:40:11;8.47;;;5.97;;
15096;SDS011;7649;52.084;7.478;2023-02-28T00:42:39;9.20;;;6.63;;
15096;SDS011;7649;52.084;7.478;2023-02-28T00:45:08;8.13;;;6.57;;
15096;SDS011;7649;52.084;7.478;2023-02-28T00:47:36;8.80;;;6.90;;
15096;SDS011;7649;52.084;7.478;2023-02-28T00:50:05;10.90;;;7.03;;
15096;SDS011;7649;52.084;7.478;2023-02-28T00:52:35;7.77;;;6.93;;
15096;SDS011;7649;52.084;7.478;2023-02-28T00:55:03;8.37;;;6.43;;
15096;SDS011;7649;52.084;7.478;2023-02-28T00:57:32;11.33;;;6.60;;
15096;SDS011;7649;52.084;7.478;2023-02-28T01:00:00;9.03;;;6.70;;
15096;SDS011;7649;52.084;7.478;2023-02-28T01:02:29;8.20;;;6.40;;
15096;SDS011;7649;52.084;7.478;2023-02-28T01:04:58;7.70;;;6.20;;
15096;SDS011;7649;52.084;7.478;2023-02-28T01:07:26;7.97;;;6.00;;
15096;SDS011;7649;52.084;7.478;2023-02-28T01:09:56;8.57;;;6.10;;
15096;SDS011;7649;52.084;7.478;2023-02-28T01:12:24;6.53;;;5.67;;
15096;SDS011;7649;52.084;7.478;2023-02-28T01:14:55;7.37;;;5.67;;
15096;SDS011;7649;52.084;7.478;2023-02-28T01:17:24;8.13;;;5.80;;
15096;SDS011;7649;52.084;7.478;2023-02-28T01:19:52;13.90;;;6.40;;
15096;SDS011;7649;52.084;7.478;2023-02-28T01:22:21;11.73;;;6.43;;
15096;SDS011;7649;52.084;7.478;2023-02-28T01:24:49;7.90;;;5.93;;
15096;SDS011;7649;52.084;7.478;2023-02-28T01:27:19;8.73;;;6.10;;
15096;SDS011;7649;52.084;7.478;2023-02-28T01:29:47;6.57;;;5.60;;
15096;SDS011;7649;52.084;7.478;2023-02-28T01:32:15;10.83;;;5.70;;
15096;SDS011;7649;52.084;7.478;2023-02-28T01:34:44;7.07;;;5.80;;
15096;SDS011;7649;52.084;7.478;2023-02-28T01:37:12;6.60;;;5.90;;
15096;SDS011;7649;52.084;7.478;2023-02-28T01:39:40;8.07;;;6.13;;
15096;SDS011;7649;52.084;7.478;2023-02-28T01:42:09;9.87;;;6.47;;
15096;SDS011;7649;52.084;7.478;2023-02-28T01:47:39;8.57;;;5.43;;
15096;SDS011;7649;52.084;7.478;2023-02-28T01:50:10;8.63;;;6.10;;
15096;SDS011;7649;52.084;7.478;2023-02-28T01:52:38;6.93;;;6.13;;
15096;SDS011;7649;52.084;7.478;2023-02-28T01:55:07;7.77;;;5.67;;
15096;SDS011;7649;52.084;7.478;2023-02-28T01:57:37;8.80;;;6.63;;
15096;SDS011;7649;52.084;7.478;2023-02-28T02:00:09;8.37;;;5.53;;
15096;SDS011;7649;52.084;7.478;2023-02-28T02:02:42;6.03;;;5.30;;
15096;SDS011;7649;52.084;7.478;2023-02-28T02:05:12;10.40;;;5.87;;
15096;SDS011;7649;52.084;7.478;2023-02-28T02:07:42;6.57;;;5.33;;
15096;SDS011;7649;52.084;7.478;2023-02-28T02:10:12;7.97;;;5.90;;
15096;SDS011;7649;52.084;7.478;2023-02-28T02:15:26;6.53;;;5.67;;
15096;SDS011;7649;52.084;7.478;2023-02-28T02:18:01;7.97;;;5.40;;
15096;SDS011;7649;52.084;7.478;2023-02-28T02:20:34;7.87;;;5.50;;
15096;SDS011;7649;52.084;7.478;2023-02-28T02:23:30;9.13;;;5.13;;
15096;SDS011;7649;52.084;7.478;2023-02-28T02:26:04;7.57;;;5.40;;
15096;SDS011;7649;52.084;7.478;2023-02-28T02:28:52;6.00;;;5.33;;
15096;SDS011;7649;52.084;7.478;2023-02-28T02:31:27;9.57;;;5.87;;
15096;SDS011;7649;52.084;7.478;2023-02-28T02:34:06;9.30;;;6.00;;
15096;SDS011;7649;52.084;7.478;2023-02-28T02:36:37;6.63;;;4.90;;
15096;SDS011;7649;52.084;7.478;2023-02-28T02:39:08;7.97;;;5.53;;
15096;SDS011;7649;52.084;7.478;2023-02-28T02:41:38;5.77;;;5.23;;
15096;SDS011;7649;52.084;7.478;2023-02-28T02:44:10;7.30;;;5.40;;
15096;SDS011;7649;52.084;7.478;2023-02-28T02:46:41;6.00;;;5.40;;
15096;SDS011;7649;52.084;7.478;2023-02-28T02:49:13;5.10;;;4.60;;
15096;SDS011;7649;52.084;7.478;2023-02-28T02:51:42;6.63;;;5.13;;
15096;SDS011;7649;52.084;7.478;2023-02-28T02:54:12;8.40;;;5.70;;
15096;SDS011;7649;52.084;7.478;2023-02-28T02:56:41;7.83;;;5.57;;
15096;SDS011;7649;52.084;7.478;2023-02-28T02:59:11;7.97;;;5.63;;
15096;SDS011;7649;52.084;7.478;2023-02-28T03:01:40;8.60;;;4.80;;
15096;SDS011;7649;52.084;7.478;2023-02-28T03:04:11;7.77;;;5.30;;
15096;SDS011;7649;52.084;7.478;2023-02-28T03:06:41;7.73;;;5.30;;
15096;SDS011;7649;52.084;7.478;2023-02-28T03:09:09;6.57;;;5.13;;
15096;SDS011;7649;52.084;7.478;2023-02-28T03:11:38;8.10;;;5.40;;
15096;SDS011;7649;52.084;7.478;2023-02-28T03:14:20;9.93;;;5.60;;
15096;SDS011;7649;52.084;7.478;2023-02-28T03:16:59;7.60;;;5.10;;
15096;SDS011;7649;52.084;7.478;2023-02-28T03:19:35;6.93;;;5.37;;
15096;SDS011;7649;52.084;7.478;2023-02-28T03:22:11;9.40;;;5.33;;
15096;SDS011;7649;52.084;7.478;2023-02-28T03:24:43;7.17;;;5.37;;
15096;SDS011;7649;52.084;7.478;2023-02-28T03:27:15;9.33;;;5.50;;
15096;SDS011;7649;52.084;7.478;2023-02-28T03:29:46;7.73;;;5.87;;
15096;SDS011;7649;52.084;7.478;2023-02-28T03:32:17;7.77;;;5.73;;
15096;SDS011;7649;52.084;7.478;2023-02-28T03:34:48;9.07;;;6.23;;
15096;SDS011;7649;52.084;7.478;2023-02-28T03:37:20;7.80;;;5.07;;
15096;SDS011;7649;52.084;7.478;2023-02-28T03:39:51;8.43;;;6.07;;
15096;SDS011;7649;52.084;7.478;2023-02-28T03:42:23;10.20;;;5.97;;
15096;SDS011;7649;52.084;7.478;2023-02-28T03:44:53;6.60;;;5.23;;
15096;SDS011;7649;52.084;7.478;2023-02-28T03:47:23;6.63;;;6.00;;
15096;SDS011;7649;52.084;7.478;2023-02-28T03:49:53;8.33;;;6.23;;
15096;SDS011;7649;52.084;7.478;2023-02-28T03:52:23;6.40;;;5.10;;
15096;SDS011;7649;52.084;7.478;2023-02-28T03:54:54;7.60;;;5.67;;
15096;SDS011;7649;52.084;7.478;2023-02-28T03:57:26;11.93;;;5.83;;
15096;SDS011;7649;52.084;7.478;2023-02-28T03:59:57;11.77;;;6.10;;
15096;SDS011;7649;52.084;7.478;2023-02-28T04:02:27;7.17;;;5.40;;
15096;SDS011;7649;52.084;7.478;2023-02-28T04:04:55;6.23;;;5.33;;
15096;SDS011;7649;52.084;7.478;2023-02-28T04:07:28;8.70;;;5.97;;
15096;SDS011;7649;52.084;7.478;2023-02-28T04:09:57;7.40;;;5.77;;
15096;SDS011;7649;52.084;7.478;2023-02-28T04:12:25;6.27;;;5.37;;
15096;SDS011;7649;52.084;7.478;2023-02-28T04:14:53;9.07;;;5.70;;
15096;SDS011;7649;52.084;7.478;2023-02-28T04:17:21;8.33;;;5.73;;
15096;SDS011;7649;52.084;7.478;2023-02-28T04:19:50;6.13;;;5.37;;
15096;SDS011;7649;52.084;7.478;2023-02-28T04:22:18;6.93;;;5.80;;
15096;SDS011;7649;52.084;7.478;2023-02-28T04:24:47;8.87;;;5.03;;
15096;SDS011;7649;52.084;7.478;2023-02-28T04:27:16;8.57;;;6.00;;
15096;SDS011;7649;52.084;7.478;2023-02-28T04:29:44;11.47;;;6.13;;
15096;SDS011;7649;52.084;7.478;2023-02-28T04:32:12;8.97;;;6.10;;
15096;SDS011;7649;52.084;7.478;2023-02-28T04:34:41;5.90;;;5.30;;
15096;SDS011;7649;52.084;7.478;2023-02-28T04:37:09;8.47;;;5.73;;
15096;SDS011;7649;52.084;7.478;2023-02-28T04:39:39;9.37;;;6.20;;
15096;SDS011;7649;52.084;7.478;2023-02-28T04:42:09;9.30;;;6.27;;
15096;SDS011;7649;52.084;7.478;2023-02-28T04:44:38;8.57;;;6.40;;
15096;SDS011;7649;52.084;7.478;2023-02-28T04:47:06;7.37;;;6.23;;
15096;SDS011;7649;52.084;7.478;2023-02-28T04:49:34;8.47;;;6.00;;
15096;SDS011;7649;52.084;7.478;2023-02-28T04:52:03;7.70;;;6.37;;
15096;SDS011;7649;52.084;7.478;2023-02-28T04:54:33;7.40;;;5.27;;
15096;SDS011;7649;52.084;7.478;2023-02-28T04:57:01;8.10;;;5.97;;
15096;SDS011;7649;52.084;7.478;2023-02-28T04:59:31;7.13;;;5.60;;
15096;SDS011;7649;52.084;7.478;2023-02-28T05:02:00;12.20;;;6.93;;
15096;SDS011;7649;52.084;7.478;2023-02-28T05:04:32;8.53;;;6.47;;
15096;SDS011;7649;52.084;7.478;2023-02-28T05:07:01;15.37;;;6.57;;
15096;SDS011;7649;52.084;7.478;2023-02-28T05:09:30;12.27;;;6.37;;
15096;SDS011;7649;52.084;7.478;2023-02-28T05:11:59;8.17;;;5.70;;
15096;SDS011;7649;52.084;7.478;2023-02-28T05:14:27;8.10;;;6.57;;
15096;SDS011;7649;52.084;7.478;2023-02-28T05:16:56;10.80;;;6.10;;
15096;SDS011;7649;52.084;7.478;2023-02-28T05:19:25;6.60;;;5.67;;
15096;SDS011;7649;52.084;7.478;2023-02-28T05:21:54;11.90;;;6.20;;
15096;SDS011;7649;52.084;7.478;2023-02-28T05:24:22;6.20;;;5.60;;
15096;SDS011;7649;52.084;7.478;2023-02-28T05:26:50;9.30;;;6.33;;
15096;SDS011;7649;52.084;7.478;2023-02-28T05:29:19;8.17;;;5.80;;
15096;SDS011;7649;52.084;7.478;2023-02-28T05:31:48;12.30;;;7.57;;
15096;SDS011;7649;52.084;7.478;2023-02-28T05:34:17;11.47;;;7.57;;
15096;SDS011;7649;52.084;7.478;2023-02-28T05:36:46;13.37;;;6.87;;
15096;SDS011;7649;52.084;7.478;2023-02-28T05:39:14;10.83;;;7.20;;
15096;SDS011;7649;52.084;7.478;2023-02-28T05:41:42;7.87;;;6.03;;
15096;SDS011;7649;52.084;7.478;2023-02-28T05:44:11;10.33;;;7.10;;
15096;SDS011;7649;52.084;7.478;2023-02-28T05:46:39;11.53;;;6.50;;
15096;SDS011;7649;52.084;7.478;2023-02-28T05:49:08;10.97;;;6.57;;
15096;SDS011;7649;52.084;7.478;2023-02-28T05:51:37;10.53;;;6.80;;
15096;SDS011;7649;52.084;7.478;2023-02-28T05:54:06;8.53;;;6.63;;
15096;SDS011;7649;52.084;7.478;2023-02-28T05:56:34;8.40;;;6.40;;
15096;SDS011;7649;52.084;7.478;2023-02-28T05:59:05;10.03;;;6.67;;
15096;SDS011;7649;52.084;7.478;2023-02-28T06:01:34;16.13;;;8.30;;
15096;SDS011;7649;52.084;7.478;2023-02-28T06:04:03;11.13;;;7.20;;
15096;SDS011;7649;52.084;7.478;2023-02-28T06:06:32;16.33;;;9.63;;
15096;SDS011;7649;52.084;7.478;2023-02-28T06:09:03;28.60;;;16.33;;
15096;SDS011;7649;52.084;7.478;2023-02-28T06:11:32;28.67;;;16.70;;
15096;SDS011;7649;52.084;7.478;2023-02-28T06:14:00;30.03;;;17.70;;
15096;SDS011;7649;52.084;7.478;2023-02-28T06:16:29;19.63;;;12.70;;
15096;SDS011;7649;52.084;7.478;2023-02-28T06:18:58;24.80;;;14.53;;
15096;SDS011;7649;52.084;7.478;2023-02-28T06:21:27;19.43;;;11.87;;
15096;SDS011;7649;52.084;7.478;2023-02-28T06:23:56;14.23;;;9.80;;
15096;SDS011;7649;52.084;7.478;2023-02-28T06:26:29;20.23;;;13.93;;
15096;SDS011;7649;52.084;7.478;2023-02-28T06:28:59;22.93;;;13.93;;
15096;SDS011;7649;52.084;7.478;2023-02-28T06:31:29;26.77;;;16.40;;
15096;SDS011;7649;52.084;7.478;2023-02-28T06:33:58;18.80;;;13.23;;
15096;SDS011;7649;52.084;7.478;2023-02-28T06:36:26;16.43;;;11.87;;
15096;SDS011;7649;52.084;7.478;2023-02-28T06:38:54;16.10;;;9.40;;
15096;SDS011;7649;52.084;7.478;2023-02-28T06:41:23;17.27;;;11.10;;
15096;SDS011;7649;52.084;7.478;2023-02-28T06:43:53;19.77;;;11.60;;
15096;SDS011;7649;52.084;7.478;2023-02-28T06:46:21;18.90;;;13.17;;
15096;SDS011;7649;52.084;7.478;2023-02-28T06:48:49;20.97;;;13.47;;
15096;SDS011;7649;52.084;7.478;2023-02-28T06:51:18;14.93;;;11.07;;
15096;SDS011;7649;52.084;7.478;2023-02-28T06:53:48;16.30;;;10.83;;
15096;SDS011;7649;52.084;7.478;2023-02-28T06:56:19;16.30;;;9.87;;
15096;SDS011;7649;52.084;7.478;2023-02-28T06:58:48;17.00;;;11.43;;
15096;SDS011;7649;52.084;7.478;2023-02-28T07:01:18;16.83;;;11.87;;
15096;SDS011;7649;52.084;7.478;2023-02-28T07:03:46;16.20;;;10.83;;
15096;SDS011;7649;52.084;7.478;2023-02-28T07:06:18;15.00;;;9.67;;
15096;SDS011;7649;52.084;7.478;2023-02-28T07:08:48;13.33;;;10.03;;
15096;SDS011;7649;52.084;7.478;2023-02-28T07:11:18;13.80;;;9.00;;
15096;SDS011;7649;52.084;7.478;2023-02-28T07:13:48;12.07;;;8.20;;
15096;SDS011;7649;52.084;7.478;2023-02-28T07:16:18;9.73;;;7.47;;
15096;SDS011;7649;52.084;7.478;2023-02-28T07:18:46;8.90;;;6.90;;
15096;SDS011;7649;52.084;7.478;2023-02-28T07:21:15;9.17;;;6.50;;
15096;SDS011;7649;52.084;7.478;2023-02-28T07:23:43;9.57;;;6.43;;
15096;SDS011;7649;52.084;7.478;2023-02-28T07:26:12;14.50;;;8.40;;
15096;SDS011;7649;52.084;7.478;2023-02-28T07:28:41;16.17;;;10.43;;
15096;SDS011;7649;52.084;7.478;2023-02-28T07:31:09;15.70;;;9.30;;
15096;SDS011;7649;52.084;7.478;2023-02-28T07:33:39;12.80;;;8.23;;
15096;SDS011;7649;52.084;7.478;2023-02-28T07:36:09;9.63;;;6.63;;
15096;SDS011;7649;52.084;7.478;2023-02-28T07:38:41;9.43;;;6.00;;
15096;SDS011;7649;52.084;7.478;2023-02-28T07:41:13;10.53;;;6.20;;
15096;SDS011;7649;52.084;7.478;2023-02-28T07:43:41;7.10;;;6.20;;
15096;SDS011;7649;52.084;7.478;2023-02-28T07:46:11;9.03;;;6.27;;
15096;SDS011;7649;52.084;7.478;2023-02-28T07:48:42;7.63;;;6.63;;
15096;SDS011;7649;52.084;7.478;2023-02-28T07:51:13;7.07;;;5.40;;
15096;SDS011;7649;52.084;7.478;2023-02-28T07:53:42;13.90;;;6.93;;
15096;SDS011;7649;52.084;7.478;2023-02-28T07:56:10;6.97;;;5.73;;
15096;SDS011;7649;52.084;7.478;2023-02-28T07:58:41;8.27;;;5.40;;
15096;SDS011;7649;52.084;7.478;2023-02-28T08:01:09;9.70;;;5.10;;
15096;SDS011;7649;52.084;7.478;2023-02-28T08:03:38;7.70;;;6.17;;
15096;SDS011;7649;52.084;7.478;2023-02-28T08:06:14;5.73;;;4.43;;
15096;SDS011;7649;52.084;7.478;2023-02-28T08:08:43;5.07;;;3.73;;
15096;SDS011;7649;52.084;7.478;2023-02-28T08:11:11;4.63;;;3.93;;
15096;SDS011;7649;52.084;7.478;2023-02-28T08:13:39;7.03;;;4.63;;
15096;SDS011;7649;52.084;7.478;2023-02-28T08:16:10;6.97;;;4.60;;
15096;SDS011;7649;52.084;7.478;2023-02-28T08:18:40;7.47;;;4.33;;
15096;SDS011;7649;52.084;7.478;2023-02-28T08:21:09;6.20;;;4.50;;
15096;SDS011;7649;52.084;7.478;2023-02-28T08:23:39;9.67;;;5.37;;
15096;SDS011;7649;52.084;7.478;2023-02-28T08:26:07;6.13;;;4.80;;
15096;SDS011;7649;52.084;7.478;2023-02-28T08:28:35;9.97;;;5.00;;
15096;SDS011;7649;52.084;7.478;2023-02-28T08:31:06;6.03;;;4.10;;
15096;SDS011;7649;52.084;7.478;2023-02-28T08:33:35;5.97;;;3.83;;
15096;SDS011;7649;52.084;7.478;2023-02-28T08:36:05;5.00;;;3.70;;
15096;SDS011;7649;52.084;7.478;2023-02-28T08:38:34;6.57;;;3.77;;
15096;SDS011;7649;52.084;7.478;2023-02-28T08:41:05;4.33;;;3.13;;
15096;SDS011;7649;52.084;7.478;2023-02-28T08:43:35;3.80;;;3.30;;
15096;SDS011;7649;52.084;7.478;2023-02-28T08:46:04;6.93;;;3.20;;
15096;SDS011;7649;52.084;7.478;2023-02-28T08:48:33;8.60;;;3.77;;
15096;SDS011;7649;52.084;7.478;2023-02-28T08:51:04;4.80;;;3.57;;
15096;SDS011;7649;52.084;7.478;2023-02-28T08:53:34;3.57;;;2.70;;
15096;SDS011;7649;52.084;7.478;2023-02-28T08:56:05;5.80;;;3.33;;
15096;SDS011;7649;52.084;7.478;2023-02-28T08:58:33;11.20;;;3.20;;
15096;SDS011;7649;52.084;7.478;2023-02-28T09:01:07;3.10;;;2.57;;
15096;SDS011;7649;52.084;7.478;2023-02-28T09:03:35;3.00;;;2.73;;
15096;SDS011;7649;52.084;7.478;2023-02-28T09:06:04;11.53;;;2.60;;
15096;SDS011;7649;52.084;7.478;2023-02-28T09:08:32;4.53;;;2.63;;
15096;SDS011;7649;52.084;7.478;2023-02-28T09:11:00;2.50;;;2.07;;
15096;SDS011;7649;52.084;7.478;2023-02-28T09:13:30;8.90;;;3.53;;
15096;SDS011;7649;52.084;7.478;2023-02-28T09:15:59;14.57;;;2.77;;
15096;SDS011;7649;52.084;7.478;2023-02-28T09:18:28;2.67;;;1.70;;
15096;SDS011;7649;52.084;7.478;2023-02-28T09:20:56;5.33;;;2.10;;
15096;SDS011;7649;52.084;7.478;2023-02-28T09:23:25;2.53;;;2.33;;
15096;SDS011;7649;52.084;7.478;2023-02-28T09:25:53;3.63;;;2.30;;
15096;SDS011;7649;52.084;7.478;2023-02-28T09:28:22;3.40;;;2.50;;
15096;SDS011;7649;52.084;7.478;2023-02-28T09:30:52;1.80;;;1.70;;
15096;SDS011;7649;52.084;7.478;2023-02-28T09:33:25;17.87;;;2.90;;
15096;SDS011;7649;52.084;7.478;2023-02-28T09:36:21;3.43;;;1.60;;
15096;SDS011;7649;52.084;7.478;2023-02-28T09:38:54;4.03;;;2.00;;
15096;SDS011;7649;52.084;7.478;2023-02-28T09:41:23;6.40;;;2.03;;
15096;SDS011;7649;52.084;7.478;2023-02-28T09:43:55;12.00;;;2.70;;
15096;SDS011;7649;52.084;7.478;2023-02-28T09:46:29;13.20;;;3.60;;
15096;SDS011;7649;52.084;7.478;2023-02-28T09:48:59;4.63;;;1.83;;
15096;SDS011;7649;52.084;7.478;2023-02-28T09:51:33;5.27;;;2.03;;
15096;SDS011;7649;52.084;7.478;2023-02-28T09:54:02;3.23;;;1.83;;
15096;SDS011;7649;52.084;7.478;2023-02-28T09:56:33;2.80;;;1.67;;
15096;SDS011;7649;52.084;7.478;2023-02-28T09:59:05;1.90;;;1.73;;
15096;SDS011;7649;52.084;7.478;2023-02-28T10:01:41;2.27;;;1.50;;
15096;SDS011;7649;52.084;7.478;2023-02-28T10:04:14;1.77;;;1.17;;
15096;SDS011;7649;52.084;7.478;2023-02-28T10:06:44;3.80;;;1.40;;
15096;SDS011;7649;52.084;7.478;2023-02-28T10:09:15;1.27;;;1.17;;
15096;SDS011;7649;52.084;7.478;2023-02-28T10:11:46;4.70;;;2.03;;
15096;SDS011;7649;52.084;7.478;2023-02-28T10:14:17;1.53;;;1.27;;
15096;SDS011;7649;52.084;7.478;2023-02-28T10:16:48;1.00;;;1.00;;
15096;SDS011;7649;52.084;7.478;2023-02-28T10:19:22;3.20;;;1.50;;
15096;SDS011;7649;52.084;7.478;2023-02-28T10:21:53;2.77;;;1.97;;
15096;SDS011;7649;52.084;7.478;2023-02-28T10:24:28;5.37;;;2.00;;
15096;SDS011;7649;52.084;7.478;2023-02-28T10:26:59;1.40;;;1.30;;
15096;SDS011;7649;52.084;7.478;2023-02-28T10:29:28;3.63;;;1.70;;
15096;SDS011;7649;52.084;7.478;2023-02-28T10:31:59;5.17;;;1.53;;
15096;SDS011;7649;52.084;7.478;2023-02-28T10:34:29;1.10;;;1.10;;
15096;SDS011;7649;52.084;7.478;2023-02-28T10:36:58;2.80;;;1.70;;
15096;SDS011;7649;52.084;7.478;2023-02-28T10:39:34;2.57;;;1.57;;
15096;SDS011;7649;52.084;7.478;2023-02-28T10:42:03;1.80;;;1.50;;
15096;SDS011;7649;52.084;7.478;2023-02-28T10:44:32;4.20;;;1.77;;
15096;SDS011;7649;52.084;7.478;2023-02-28T10:47:02;2.40;;;1.30;;
15096;SDS011;7649;52.084;7.478;2023-02-28T10:49:31;3.83;;;1.67;;
15096;SDS011;7649;52.084;7.478;2023-02-28T10:52:00;1.73;;;1.53;;
15096;SDS011;7649;52.084;7.478;2023-02-28T10:54:29;2.07;;;1.40;;
15096;SDS011;7649;52.084;7.478;2023-02-28T10:57:17;3.07;;;1.47;;
15096;SDS011;7649;52.084;7.478;2023-02-28T10:59:46;1.90;;;1.50;;
15096;SDS011;7649;52.084;7.478;2023-02-28T11:02:30;3.53;;;2.60;;
15096;SDS011;7649;52.084;7.478;2023-02-28T11:05:00;5.37;;;1.67;;
15096;SDS011;7649;52.084;7.478;2023-02-28T11:07:28;2.33;;;1.87;;
15096;SDS011;7649;52.084;7.478;2023-02-28T11:10:16;1.70;;;1.60;;
15096;SDS011;7649;52.084;7.478;2023-02-28T11:12:47;2.20;;;1.40;;
15096;SDS011;7649;52.084;7.478;2023-02-28T11:15:21;2.93;;;1.40;;
15096;SDS011;7649;52.084;7.478;2023-02-28T11:17:55;4.87;;;1.67;;
15096;SDS011;7649;52.084;7.478;2023-02-28T11:20:25;2.57;;;1.80;;
15096;SDS011;7649;52.084;7.478;2023-02-28T11:22:54;2.03;;;1.63;;
15096;SDS011;7649;52.084;7.478;2023-02-28T11:25:24;2.70;;;1.67;;
15096;SDS011;7649;52.084;7.478;2023-02-28T11:27:56;4.33;;;1.60;;
15096;SDS011;7649;52.084;7.478;2023-02-28T11:30:28;3.13;;;1.70;;
15096;SDS011;7649;52.084;7.478;2023-02-28T11:32:59;5.33;;;1.77;;
15096;SDS011;7649;52.084;7.478;2023-02-28T11:35:28;1.37;;;1.20;;
15096;SDS011;7649;52.084;7.478;2023-02-28T11:37:58;2.37;;;1.97;;
15096;SDS011;7649;52.084;7.478;2023-02-28T11:40:29;3.00;;;2.70;;
15096;SDS011;7649;52.084;7.478;2023-02-28T11:43:02;1.63;;;1.20;;
15096;SDS011;7649;52.084;7.478;2023-02-28T11:45:43;6.80;;;2.07;;
15096;SDS011;7649;52.084;7.478;2023-02-28T11:48:15;2.50;;;1.60;;
15096;SDS011;7649;52.084;7.478;2023-02-28T11:50:47;3.30;;;2.00;;
15096;SDS011;7649;52.084;7.478;2023-02-28T11:53:19;4.90;;;1.90;;
15096;SDS011;7649;52.084;7.478;2023-02-28T11:55:53;8.67;;;2.37;;
15096;SDS011;7649;52.084;7.478;2023-02-28T11:58:33;1.47;;;1.37;;
15096;SDS011;7649;52.084;7.478;2023-02-28T12:01:12;2.33;;;1.20;;
15096;SDS011;7649;52.084;7.478;2023-02-28T12:03:47;2.07;;;1.40;;
15096;SDS011;7649;52.084;7.478;2023-02-28T12:06:21;1.57;;;1.47;;
15096;SDS011;7649;52.084;7.478;2023-02-28T12:08:57;1.83;;;1.50;;
15096;SDS011;7649;52.084;7.478;2023-02-28T12:11:31;1.57;;;1.40;;
15096;SDS011;7649;52.084;7.478;2023-02-28T12:14:06;2.40;;;1.40;;
15096;SDS011;7649;52.084;7.478;2023-02-28T12:16:44;1.70;;;1.60;;
15096;SDS011;7649;52.084;7.478;2023-02-28T12:19:18;1.53;;;1.43;;
15096;SDS011;7649;52.084;7.478;2023-02-28T12:21:55;1.53;;;1.43;;
15096;SDS011;7649;52.084;7.478;2023-02-28T12:24:30;1.40;;;1.30;;
15096;SDS011;7649;52.084;7.478;2023-02-28T12:27:05;2.30;;;1.63;;
15096;SDS011;7649;52.084;7.478;2023-02-28T12:29:38;1.40;;;1.30;;
15096;SDS011;7649;52.084;7.478;2023-02-28T12:32:10;2.63;;;1.40;;
15096;SDS011;7649;52.084;7.478;2023-02-28T12:34:42;4.97;;;2.00;;
15096;SDS011;7649;52.084;7.478;2023-02-28T12:37:13;4.50;;;1.90;;
15096;SDS011;7649;52.084;7.478;2023-02-28T12:39:43;1.70;;;1.60;;
15096;SDS011;7649;52.084;7.478;2023-02-28T12:42:17;2.70;;;1.87;;
15096;SDS011;7649;52.084;7.478;2023-02-28T12:44:49;2.17;;;1.70;;
15096;SDS011;7649;52.084;7.478;2023-02-28T12:47:20;3.07;;;1.70;;
15096;SDS011;7649;52.084;7.478;2023-02-28T12:49:51;2.23;;;1.90;;
15096;SDS011;7649;52.084;7.478;2023-02-28T12:52:22;2.23;;;1.60;;
15096;SDS011;7649;52.084;7.478;2023-02-28T12:54:53;3.10;;;2.07;;
15096;SDS011;7649;52.084;7.478;2023-02-28T12:57:25;2.30;;;1.77;;
15096;SDS011;7649;52.084;7.478;2023-02-28T12:59:55;2.20;;;1.90;;
15096;SDS011;7649;52.084;7.478;2023-02-28T13:08:25;2.60;;;1.87;;
15096;SDS011;7649;52.084;7.478;2023-02-28T13:10:57;2.50;;;2.03;;
15096;SDS011;7649;52.084;7.478;2023-02-28T13:13:29;2.07;;;1.97;;
15096;SDS011;7649;52.084;7.478;2023-02-28T13:15:59;2.07;;;1.97;;
15096;SDS011;7649;52.084;7.478;2023-02-28T13:18:30;1.80;;;1.70;;
15096;SDS011;7649;52.084;7.478;2023-02-28T13:20:59;3.90;;;1.80;;
15096;SDS011;7649;52.084;7.478;2023-02-28T13:26:20;4.10;;;1.90;;
15096;SDS011;7649;52.084;7.478;2023-02-28T13:34:23;2.50;;;2.13;;
15096;SDS011;7649;52.084;7.478;2023-02-28T13:36:52;4.90;;;2.10;;
15096;SDS011;7649;52.084;7.478;2023-02-28T13:39:47;2.67;;;1.90;;
15096;SDS011;7649;52.084;7.478;2023-02-28T13:42:31;3.30;;;2.00;;
15096;SDS011;7649;52.084;7.478;2023-02-28T13:45:21;1.93;;;1.70;;
15096;SDS011;7649;52.084;7.478;2023-02-28T13:47:54;1.90;;;1.80;;
15096;SDS011;7649;52.084;7.478;2023-02-28T13:50:27;4.27;;;1.90;;
15096;SDS011;7649;52.084;7.478;2023-02-28T13:53:00;4.10;;;2.40;;
15096;SDS011;7649;52.084;7.478;2023-02-28T13:55:30;3.70;;;2.03;;
15096;SDS011;7649;52.084;7.478;2023-02-28T13:58:12;1.83;;;1.70;;
15096;SDS011;7649;52.084;7.478;2023-02-28T14:00:52;9.43;;;2.50;;
15096;SDS011;7649;52.084;7.478;2023-02-28T14:03:38;7.33;;;2.30;;
15096;SDS011;7649;52.084;7.478;2023-02-28T14:06:14;2.70;;;2.50;;
15096;SDS011;7649;52.084;7.478;2023-02-28T14:08:49;2.30;;;2.10;;
15096;SDS011;7649;52.084;7.478;2023-02-28T14:11:30;2.17;;;1.57;;
15096;SDS011;7649;52.084;7.478;2023-02-28T14:14:00;11.90;;;2.70;;
15096;SDS011;7649;52.084;7.478;2023-02-28T14:16:35;4.80;;;2.07;;
15096;SDS011;7649;52.084;7.478;2023-02-28T14:19:09;5.63;;;2.00;;
15096;SDS011;7649;52.084;7.478;2023-02-28T14:21:40;4.17;;;2.40;;
15096;SDS011;7649;52.084;7.478;2023-02-28T14:24:22;6.40;;;2.40;;
15096;SDS011;7649;52.084;7.478;2023-02-28T14:26:56;5.40;;;2.57;;
15096;SDS011;7649;52.084;7.478;2023-02-28T14:29:33;3.47;;;2.30;;
15096;SDS011;7649;52.084;7.478;2023-02-28T14:32:06;3.27;;;2.20;;
15096;SDS011;7649;52.084;7.478;2023-02-28T14:34:40;4.23;;;2.27;;
15096;SDS011;7649;52.084;7.478;2023-02-28T14:37:13;2.50;;;2.27;;
15096;SDS011;7649;52.084;7.478;2023-02-28T14:39:42;4.77;;;2.20;;
15096;SDS011;7649;52.084;7.478;2023-02-28T14:44:56;10.83;;;3.00;;
15096;SDS011;7649;52.084;7.478;2023-02-28T14:47:25;3.00;;;2.50;;
15096;SDS011;7649;52.084;7.478;2023-02-28T14:49:55;2.70;;;2.43;;
15096;SDS011;7649;52.084;7.478;2023-02-28T14:52:26;3.00;;;2.13;;
15096;SDS011;7649;52.084;7.478;2023-02-28T14:54:57;7.53;;;2.90;;
15096;SDS011;7649;52.084;7.478;2023-02-28T14:57:28;6.13;;;2.33;;
15096;SDS011;7649;52.084;7.478;2023-02-28T14:59:58;10.37;;;2.60;;
15096;SDS011;7649;52.084;7.478;2023-02-28T15:02:29;5.67;;;2.60;;
15096;SDS011;7649;52.084;7.478;2023-02-28T15:04:59;5.27;;;2.30;;
15096;SDS011;7649;52.084;7.478;2023-02-28T15:07:28;3.33;;;2.57;;
15096;SDS011;7649;52.084;7.478;2023-02-28T15:10:15;3.20;;;2.33;;
15096;SDS011;7649;52.084;7.478;2023-02-28T15:12:45;2.53;;;2.17;;
15096;SDS011;7649;52.084;7.478;2023-02-28T15:15:16;2.63;;;2.07;;
15096;SDS011;7649;52.084;7.478;2023-02-28T15:17:57;3.37;;;2.33;;
15096;SDS011;7649;52.084;7.478;2023-02-28T15:20:26;2.60;;;2.40;;
15096;SDS011;7649;52.084;7.478;2023-02-28T15:22:55;3.83;;;2.30;;
15096;SDS011;7649;52.084;7.478;2023-02-28T15:25:24;3.17;;;2.27;;
15096;SDS011;7649;52.084;7.478;2023-02-28T15:27:53;4.77;;;2.60;;
15096;SDS011;7649;52.084;7.478;2023-02-28T15:30:25;2.40;;;2.20;;
15096;SDS011;7649;52.084;7.478;2023-02-28T15:33:06;4.97;;;2.07;;
15096;SDS011;7649;52.084;7.478;2023-02-28T15:35:34;2.87;;;2.27;;
15096;SDS011;7649;52.084;7.478;2023-02-28T15:38:03;2.23;;;2.13;;
15096;SDS011;7649;52.084;7.478;2023-02-28T15:40:32;2.93;;;2.40;;
15096;SDS011;7649;52.084;7.478;2023-02-28T15:43:05;3.93;;;2.50;;